Time;durP1;ratioP1;P1;durP2;ratioP2;P2;SDS_P1;SDS_P2;PMS_P1;PMS_P2;Temp;Humidity;BMP_temperature;BMP_pressure;BME280_temperature;BME280_humidity;BME280_pressure;Samples;Min_cycle;Max_cycle;Signal;HPM_P1;HPM_P2
2021/12/14 00:01:14;;;;;;;36.20;19.48;;;;;;;0.20;70.53;100657.31;5049809;28;20374;-46
2021/12/14 00:03:44;;;;;;;36.58;19.38;;;;;;;0.20;70.29;100663.44;5048759;28;20029;-45
2021/12/14 00:06:12;;;;;;;35.17;19.17;;;;;;;0.19;70.39;100656.44;5030919;28;20030;-50
2021/12/14 00:08:49;;;;;;;39.20;19.83;;;;;;;0.17;70.40;100662.66;5031615;28;20104;-48
2021/12/14 00:11:36;;;;;;;33.08;18.85;;;;;;;0.17;70.34;100665.28;5031239;28;20382;-47
2021/12/14 00:15:01;;;;;;;35.58;19.20;;;;;;;0.14;70.74;100663.59;5032141;28;20489;-49
2021/12/14 00:17:00;;;;;;;33.55;18.67;;;;;;;0.02;70.33;100646.31;5031627;28;20078;-45
2021/12/14 00:19:29;;;;;;;37.35;19.70;;;;;;;0.11;70.39;100666.28;5030792;28;20152;-50
2021/12/14 00:22:02;;;;;;;34.13;18.38;;;;;;;0.07;70.97;100665.50;5031540;28;20029;-48
2021/12/14 00:24:29;;;;;;;37.80;19.45;;;;;;;0.08;70.70;100667.25;5031713;28;20041;-49
2021/12/14 00:26:59;;;;;;;37.55;19.38;;;;;;;0.10;70.30;100661.91;5032191;28;20083;-48
2021/12/14 00:29:28;;;;;;;34.50;18.88;;;;;;;0.08;70.06;100667.25;5031595;28;20123;-52
2021/12/14 00:31:57;;;;;;;35.78;19.17;;;;;;;0.06;70.42;100668.16;5031350;28;20072;-51
2021/12/14 00:34:35;;;;;;;34.70;19.05;;;;;;;0.00;71.00;100671.84;5031623;28;20032;-48
2021/12/14 00:37:02;;;;;;;34.97;18.92;;;;;;;0.02;70.91;100671.78;5032138;28;20037;-52
2021/12/14 00:39:27;;;;;;;37.45;20.08;;;;;;;0.02;70.76;100666.50;5031195;28;20569;-49
2021/12/14 00:41:53;;;;;;;37.50;19.17;;;;;;;-0.01;70.52;100655.16;5031112;28;20061;-47
2021/12/14 00:44:20;;;;;;;35.03;18.27;;;;;;;0.07;70.85;100662.88;5031091;28;20041;-52
2021/12/14 00:46:47;;;;;;;41.35;19.45;;;;;;;0.10;70.50;100659.28;5032004;28;20021;-51
2021/12/14 00:49:14;;;;;;;38.22;20.20;;;;;;;0.14;70.51;100664.44;5031181;28;20031;-48
2021/12/14 00:51:40;;;;;;;36.03;19.15;;;;;;;0.10;70.70;100656.66;5031273;28;20388;-49
2021/12/14 00:54:11;;;;;;;39.65;19.92;;;;;;;0.20;70.86;100662.56;5031424;28;20117;-49
2021/12/14 00:56:37;;;;;;;34.65;18.65;;;;;;;0.20;70.79;100657.31;5032280;28;20039;-51
2021/12/14 00:59:05;;;;;;;37.72;19.55;;;;;;;0.26;70.74;100662.44;5031446;28;20025;-49
2021/12/14 01:01:36;;;;;;;37.67;19.73;;;;;;;0.31;70.44;100664.94;5031209;28;20370;-48
2021/12/14 01:04:07;;;;;;;35.60;18.98;;;;;;;0.26;70.01;100649.28;5034717;28;20462;-48
2021/12/14 01:06:36;;;;;;;39.83;18.58;;;;;;;0.29;70.23;100659.72;5031349;28;20128;-49
2021/12/14 01:09:05;;;;;;;35.15;19.15;;;;;;;0.27;70.36;100664.16;5050795;28;20033;-46
2021/12/14 01:11:38;;;;;;;35.80;18.88;;;;;;;0.28;70.73;100660.63;5050875;28;20409;-50
2021/12/14 01:14:26;;;;;;;39.53;20.27;;;;;;;0.31;70.55;100663.19;5051386;28;20033;-52
2021/12/14 01:17:12;;;;;;;40.10;21.55;;;;;;;-0.30;70.38;100561.94;5049264;28;20124;-46
2021/12/14 01:19:41;;;;;;;50.28;22.48;;;;;;;0.30;70.67;100661.47;5031096;28;20029;-46
2021/12/14 01:22:20;;;;;;;43.15;21.77;;;;;;;0.28;70.47;100656.22;5030073;28;20030;-47
2021/12/14 01:25:03;;;;;;;43.05;22.05;;;;;;;0.28;70.44;100653.59;5030740;28;20037;-44
2021/12/14 01:27:35;;;;;;;38.92;21.92;;;;;;;0.34;69.54;100646.41;5031564;28;20107;-50
2021/12/14 01:30:08;;;;;;;45.80;21.92;;;;;;;0.14;69.94;100643.38;5031013;28;20438;-47
2021/12/14 01:32:38;;;;;;;38.55;19.80;;;;;;;0.12;70.10;100650.47;5034565;28;20037;-48
2021/12/14 01:35:13;;;;;;;40.55;19.65;;;;;;;0.10;70.39;100647.00;5034779;28;20041;-46
2021/12/14 01:37:49;;;;;;;38.55;20.55;;;;;;;0.08;69.85;100651.44;5034802;28;20052;-48
2021/12/14 01:40:45;;;;;;;44.25;19.95;;;;;;;0.08;70.08;100648.81;5035634;28;20508;-51
2021/12/14 01:43:04;;;;;;;38.70;19.25;;;;;;;0.07;69.74;100656.72;5034304;28;20512;-46
2021/12/14 01:45:30;;;;;;;36.00;20.00;;;;;;;0.05;70.18;100648.88;5034326;28;20101;-46
2021/12/14 01:47:58;;;;;;;35.15;18.98;;;;;;;0.05;69.78;100654.16;5034060;28;20405;-47
2021/12/14 01:50:29;;;;;;;38.67;19.58;;;;;;;0.06;70.43;100655.88;5035237;28;20067;-47
2021/12/14 01:52:57;;;;;;;42.03;20.27;;;;;;;0.08;70.07;100647.94;5034117;28;20041;-46
2021/12/14 01:55:27;;;;;;;38.00;19.73;;;;;;;0.11;70.04;100646.09;5034009;28;20022;-45
2021/12/14 01:57:55;;;;;;;39.15;20.13;;;;;;;0.13;69.80;100652.19;5033018;28;20064;-44
2021/12/14 02:00:33;;;;;;;40.08;20.35;;;;;;;0.14;69.56;100645.16;5035403;28;20037;-49
2021/12/14 02:03:00;;;;;;;39.80;21.10;;;;;;;0.08;69.73;100646.19;5034099;28;20061;-52
2021/12/14 02:05:31;;;;;;;35.05;20.15;;;;;;;0.09;69.82;100649.66;5034143;28;20083;-49
2021/12/14 02:07:59;;;;;;;38.67;19.10;;;;;;;0.07;69.84;100644.44;5034255;28;20428;-45
2021/12/14 02:10:29;;;;;;;35.78;19.70;;;;;;;0.08;70.09;100654.06;5035510;28;20081;-45
2021/12/14 02:12:55;;;;;;;37.13;19.27;;;;;;;0.06;70.06;100639.19;5033687;28;20065;-49
2021/12/14 02:15:26;;;;;;;38.42;20.02;;;;;;;0.07;69.69;100643.56;5033777;28;20079;-48
2021/12/14 02:17:54;;;;;;;38.60;19.77;;;;;;;0.06;69.28;100639.19;5034009;28;20079;-45
2021/12/14 02:20:25;;;;;;;40.85;21.00;;;;;;;0.04;69.20;100635.75;5035074;28;20033;-46
2021/12/14 02:22:51;;;;;;;39.08;20.45;;;;;;;-0.02;69.64;100637.63;5033721;28;20045;-48
2021/12/14 02:25:17;;;;;;;37.42;20.25;;;;;;;0.01;68.99;100636.69;5033634;28;20098;-47
2021/12/14 02:27:47;;;;;;;39.53;19.42;;;;;;;-0.01;69.47;100634.09;5033766;28;20045;-46
2021/12/14 02:30:28;;;;;;;40.88;20.48;;;;;;;-0.02;69.83;100636.75;5034300;28;20041;-46
2021/12/14 02:32:55;;;;;;;38.50;19.83;;;;;;;-0.05;69.84;100642.09;5034230;28;20041;-49
2021/12/14 02:35:25;;;;;;;32.55;19.38;;;;;;;-0.07;69.55;100644.78;5033556;28;20120;-49
2021/12/14 02:38:00;;;;;;;37.58;19.13;;;;;;;-0.31;69.01;100604.06;5033411;28;20462;-49
2021/12/14 02:40:53;;;;;;;38.53;18.95;;;;;;;-0.05;69.73;100642.09;5033339;28;20037;-47
2021/12/14 02:43:23;;;;;;;41.58;20.48;;;;;;;-0.05;68.97;100642.97;5033548;28;20462;-47
2021/12/14 02:45:48;;;;;;;36.38;19.23;;;;;;;-0.11;69.19;100642.25;5033461;28;20041;-45
2021/12/14 02:48:14;;;;;;;37.25;19.20;;;;;;;-0.15;69.25;100634.41;5033651;28;20112;-45
2021/12/14 02:50:40;;;;;;;33.88;17.77;;;;;;;-0.11;69.47;100640.50;5033515;28;20033;-45
2021/12/14 02:53:06;;;;;;;38.67;19.60;;;;;;;-0.07;69.69;100643.91;5032880;28;20033;-47
2021/12/14 02:55:33;;;;;;;41.78;18.77;;;;;;;-0.07;69.41;100633.38;5033310;28;20038;-45
2021/12/14 02:58:05;;;;;;;37.58;18.83;;;;;;;-0.06;69.49;100627.19;5033097;28;20108;-45
2021/12/14 03:00:51;;;;;;;34.97;19.55;;;;;;;-0.19;69.42;100605.56;5033239;28;20060;-45
2021/12/14 03:03:19;;;;;;;36.63;18.45;;;;;;;-0.11;69.48;100626.44;5033952;28;20029;-47
2021/12/14 03:05:48;;;;;;;35.75;18.42;;;;;;;-0.09;69.33;100624.63;5033374;28;20037;-47
2021/12/14 03:08:21;;;;;;;36.83;18.88;;;;;;;-0.05;69.67;100626.28;5033458;28;20040;-46
2021/12/14 03:10:58;;;;;;;36.60;18.65;;;;;;;-0.05;69.26;100628.94;5032773;28;20045;-50
2021/12/14 03:13:34;;;;;;;35.08;17.80;;;;;;;-0.03;69.32;100621.84;5032575;28;20025;-47
2021/12/14 03:16:04;;;;;;;37.63;19.23;;;;;;;-0.08;69.52;100626.38;5032912;28;20041;-47
2021/12/14 03:18:35;;;;;;;36.13;17.75;;;;;;;-0.16;69.23;100632.69;5032924;28;20034;-45
2021/12/14 03:21:15;;;;;;;40.88;18.88;;;;;;;-0.28;69.54;100625.06;5032396;28;20033;-48
2021/12/14 03:23:53;;;;;;;38.65;19.17;;;;;;;-0.15;69.88;100639.69;5033243;28;20104;-54
2021/12/14 03:26:22;;;;;;;36.67;18.50;;;;;;;-0.13;69.13;100641.41;5032798;28;20053;-49
2021/12/14 03:28:52;;;;;;;37.35;19.65;;;;;;;-0.12;69.53;100646.66;5032543;28;20040;-46
2021/12/14 03:31:28;;;;;;;35.03;17.92;;;;;;;-0.05;69.38;100639.44;5032192;28;20064;-50
2021/12/14 03:34:02;;;;;;;38.53;18.52;;;;;;;-0.06;69.40;100640.34;5032945;28;20033;-49
2021/12/14 03:36:42;;;;;;;36.03;18.20;;;;;;;-0.06;69.30;100640.34;5032710;28;20049;-53
2021/12/14 03:39:21;;;;;;;33.58;17.50;;;;;;;-0.05;69.16;100632.44;5032287;28;20060;-50
2021/12/14 03:42:03;;;;;;;35.90;18.05;;;;;;;-0.16;69.07;100629.19;5032229;28;20045;-49
2021/12/14 03:44:40;;;;;;;37.03;17.98;;;;;;;-0.16;68.99;100629.19;5031695;28;20048;-47
2021/12/14 03:47:16;;;;;;;34.30;18.33;;;;;;;-0.19;69.28;100627.50;5032296;28;20026;-51
2021/12/14 03:49:49;;;;;;;34.67;16.90;;;;;;;-0.09;68.68;100627.28;5032006;28;20036;-51
2021/12/14 03:52:21;;;;;;;34.55;16.58;;;;;;;-0.24;68.78;100631.13;5030688;28;20040;-49
2021/12/14 03:54:47;;;;;;;32.97;17.60;;;;;;;-0.45;69.56;100628.94;5031624;28;20033;-50
2021/12/14 03:57:13;;;;;;;34.97;17.30;;;;;;;-0.44;69.46;100641.22;5033048;28;20083;-49
2021/12/14 03:59:39;;;;;;;34.92;17.80;;;;;;;-0.40;69.11;100626.19;5032042;28;20056;-49
2021/12/14 04:02:08;;;;;;;36.40;16.85;;;;;;;-0.42;69.79;100629.78;5031826;28;20033;-48
2021/12/14 04:05:00;;;;;;;35.25;17.30;;;;;;;-0.36;69.64;100637.53;5032160;28;20075;-48
2021/12/14 04:07:26;;;;;;;35.60;17.60;;;;;;;-0.34;70.05;100630.47;5032979;28;20036;-47
2021/12/14 04:09:52;;;;;;;37.92;18.00;;;;;;;-0.37;69.69;100631.38;5031692;28;20037;-53
2021/12/14 04:12:19;;;;;;;33.00;18.15;;;;;;;-0.34;69.50;100625.19;5032010;28;20098;-49
2021/12/14 04:14:52;;;;;;;32.35;17.02;;;;;;;-0.24;69.41;100634.63;5032011;28;20241;-51
2021/12/14 04:17:21;;;;;;;34.35;18.67;;;;;;;-0.28;69.62;100622.44;5033022;28;20026;-52
2021/12/14 04:19:46;;;;;;;34.38;17.88;;;;;;;-0.26;69.52;100633.78;5031770;28;20060;-48
2021/12/14 04:22:19;;;;;;;34.20;17.13;;;;;;;-0.21;69.57;100634.56;5031607;28;20470;-46
2021/12/14 04:24:48;;;;;;;31.95;17.58;;;;;;;-0.20;69.35;100644.19;5031856;28;20041;-53
2021/12/14 04:27:22;;;;;;;36.25;17.60;;;;;;;-0.17;69.75;100637.97;5032427;28;20046;-47
2021/12/14 04:29:49;;;;;;;37.47;16.90;;;;;;;-0.15;69.43;100644.94;5031278;28;20033;-47
2021/12/14 04:32:16;;;;;;;33.78;17.10;;;;;;;-0.10;69.40;100650.13;5031215;28;20045;-46
2021/12/14 04:34:42;;;;;;;34.33;17.05;;;;;;;-0.13;69.16;100644.88;5030904;28;20038;-49
2021/12/14 04:37:08;;;;;;;35.97;16.35;;;;;;;0.00;68.46;100650.75;5031137;28;20029;-51
2021/12/14 04:53:49;;;;;;;35.78;16.60;;;;;;;-0.46;67.51;100652.66;5030897;28;20033;-54
2021/12/14 04:56:20;;;;;;;32.33;15.88;;;;;;;-0.82;68.12;100610.47;5031587;28;20481;-51
2021/12/14 04:58:53;;;;;;;33.65;17.95;;;;;;;-0.61;68.87;100656.47;5031514;28;20036;-46
2021/12/14 05:01:19;;;;;;;36.05;17.13;;;;;;;-0.70;69.04;100664.56;5014389;28;20029;-51
2021/12/14 05:03:49;;;;;;;35.83;16.85;;;;;;;-0.63;69.13;100660.91;5031024;28;20090;-52
2021/12/14 05:11:14;;;;;;;34.80;17.95;;;;;;;-0.69;69.54;100666.31;5035687;28;20443;-52
2021/12/14 05:13:43;;;;;;;36.97;17.73;;;;;;;-0.77;69.93;100676.97;5035041;28;20366;-52
2021/12/14 05:16:16;;;;;;;40.28;17.38;;;;;;;-0.71;70.01;100670.72;5034751;28;20025;-53
2021/12/14 05:18:52;;;;;;;34.97;17.42;;;;;;;-0.64;70.28;100675.81;5033611;28;20053;-48
2021/12/14 05:21:23;;;;;;;;;;;;;;;-0.28;68.28;100672.44;5036470;28;20487;-50
2021/12/14 05:23:49;;;;;;;35.28;16.70;;;;;;;-0.50;68.18;100666.78;5034996;28;20373;-48
2021/12/14 05:26:15;;;;;;;38.33;17.55;;;;;;;-0.75;68.28;100644.47;5034735;28;20156;-48
2021/12/14 05:28:43;;;;;;;34.08;16.42;;;;;;;-0.74;67.92;100634.81;5034521;28;20072;-55
2021/12/14 05:31:09;;;;;;;41.25;19.20;;;;;;;-0.71;68.46;100678.63;5033823;28;20029;-47
2021/12/14 05:33:37;;;;;;;31.48;14.80;;;;;;;-0.65;68.63;100678.47;5034741;28;20025;-49
2021/12/14 05:36:12;;;;;;;36.35;16.73;;;;;;;-0.70;69.01;100685.59;5034478;28;20025;-49
2021/12/14 05:43:06;;;;;;;34.53;16.52;;;;;;;-0.85;69.23;100677.13;5035641;28;20030;-51
2021/12/14 05:44:02;;;;;;;33.85;16.67;;;;;;;-0.83;69.23;100677.94;5034398;28;20132;-51
2021/12/14 05:46:28;;;;;;;28.52;13.77;;;;;;;-0.53;67.63;100683.47;5033118;28;20028;-49
2021/12/14 05:49:01;;;;;;;34.05;16.17;;;;;;;-0.60;67.31;100681.88;5034484;28;20030;-54
2021/12/14 05:51:29;;;;;;;36.80;15.82;;;;;;;-0.62;66.89;100676.63;5033947;28;20036;-49
2021/12/14 05:53:55;;;;;;;37.55;16.17;;;;;;;-0.90;68.61;100679.81;5034326;28;20061;-47
2021/12/14 05:56:23;;;;;;;33.60;16.27;;;;;;;-0.93;69.15;100679.88;5034057;28;20536;-55
2021/12/14 05:58:51;;;;;;;35.03;15.85;;;;;;;-0.83;68.00;100685.84;5034280;28;20382;-50
2021/12/14 06:01:21;;;;;;;35.20;17.38;;;;;;;-0.80;68.05;100688.41;5032734;28;20124;-49
2021/12/14 06:03:58;;;;;;;37.08;17.38;;;;;;;-0.89;69.15;100686.81;5035129;28;20064;-52
2021/12/14 06:06:32;;;;;;;36.25;17.88;;;;;;;-0.85;69.37;100678.84;5032942;28;20033;-49
2021/12/14 06:09:03;;;;;;;31.42;15.50;;;;;;;-0.73;68.83;100682.13;5034236;28;20433;-50
2021/12/14 06:11:29;;;;;;;33.28;17.23;;;;;;;-0.64;67.93;100674.97;5034244;28;20026;-47
2021/12/14 06:13:55;;;;;;;35.92;17.90;;;;;;;-0.69;68.66;100676.81;5034736;28;20521;-50
2021/12/14 06:16:29;;;;;;;39.05;17.30;;;;;;;-0.64;68.33;100677.59;5033943;28;20037;-49
2021/12/14 06:19:22;;;;;;;36.40;18.52;;;;;;;-0.61;68.92;100680.16;5032776;28;20112;-49
2021/12/14 06:21:52;;;;;;;34.90;17.48;;;;;;;-0.54;68.54;100680.91;5033561;28;20047;-51
2021/12/14 06:24:22;;;;;;;32.67;17.15;;;;;;;-0.71;68.82;100647.06;5033916;28;20112;-47
2021/12/14 06:26:51;;;;;;;34.78;17.10;;;;;;;-0.46;68.00;100679.84;5032961;28;20053;-53
2021/12/14 06:29:23;;;;;;;31.98;16.17;;;;;;;-0.38;67.41;100694.59;5033263;28;20037;-51
2021/12/14 06:31:50;;;;;;;33.97;16.67;;;;;;;-0.38;67.85;100684.06;5033163;28;20049;-51
2021/12/14 06:34:15;;;;;;;35.60;16.00;;;;;;;-0.34;67.40;100686.59;5033078;28;20462;-50
2021/12/14 06:36:52;;;;;;;35.97;17.80;;;;;;;-0.33;67.55;100685.69;5033484;28;20095;-54
2021/12/14 06:39:19;;;;;;;32.60;16.88;;;;;;;-0.44;67.66;100682.41;5035930;28;20424;-55
2021/12/14 06:41:44;;;;;;;35.40;16.70;;;;;;;-0.44;66.83;100678.03;5042842;28;20112;-51
2021/12/14 06:44:10;;;;;;;34.88;17.50;;;;;;;-0.41;66.41;100684.13;5041033;28;20633;-52
2021/12/14 06:46:40;;;;;;;35.13;16.15;;;;;;;-0.46;67.40;100669.31;5042456;28;20026;-52
2021/12/14 06:49:12;;;;;;;36.53;17.27;;;;;;;-0.65;67.78;100689.00;5040735;28;20040;-55
2021/12/14 06:51:40;;;;;;;35.15;18.40;;;;;;;-0.69;67.91;100687.34;5041436;28;20079;-51
2021/12/14 06:54:12;;;;;;;30.13;15.10;;;;;;;-0.58;67.77;100685.34;5042858;28;20029;-53
2021/12/14 06:56:38;;;;;;;43.85;18.13;;;;;;;-0.64;67.23;100698.63;5040005;28;20045;-55
2021/12/14 06:59:06;;;;;;;33.58;16.25;;;;;;;-0.59;67.22;100705.53;5033181;28;20025;-54
2021/12/14 07:01:54;;;;;;;37.05;18.42;;;;;;;-0.55;66.11;100706.31;5033121;28;20464;-51
2021/12/14 07:04:29;;;;;;;33.75;17.15;;;;;;;-0.64;66.91;100702.09;5032831;28;20368;-57
2021/12/14 07:07:00;;;;;;;39.40;18.88;;;;;;;-0.67;67.32;100709.22;5049802;28;20049;-51
2021/12/14 07:09:34;;;;;;;41.83;19.00;;;;;;;-0.75;67.81;100706.72;5053163;28;20064;-55
2021/12/14 07:12:06;;;;;;;37.72;17.75;;;;;;;-0.77;68.13;100706.75;5052587;28;20036;-56
2021/12/14 07:14:31;;;;;;;38.95;18.30;;;;;;;-0.65;68.06;100710.03;5052326;28;20436;-52
2021/12/14 07:17:11;;;;;;;35.83;17.70;;;;;;;-0.54;67.81;100715.94;5051566;28;20041;-54
2021/12/14 07:19:46;;;;;;;38.83;19.00;;;;;;;-0.41;67.18;100705.19;5052654;28;20342;-52
2021/12/14 07:22:32;;;;;;;39.20;18.55;;;;;;;-0.16;66.89;100713.41;5052533;28;20033;-51
2021/12/14 07:25:09;;;;;;;40.00;18.95;;;;;;;-0.24;67.16;100721.50;5051698;28;20025;-53
2021/12/14 07:27:37;;;;;;;41.50;19.65;;;;;;;-0.23;67.28;100714.44;5038379;28;20041;-52
2021/12/14 07:30:12;;;;;;;39.58;19.77;;;;;;;-0.15;66.92;100709.88;5033152;28;20103;-53
2021/12/14 07:33:05;;;;;;;40.40;20.33;;;;;;;-0.05;67.01;100718.44;5037402;28;20037;-52
2021/12/14 07:35:36;;;;;;;44.42;20.75;;;;;;;-0.03;66.72;100714.00;5035129;28;20041;-62
2021/12/14 07:38:25;;;;;;;42.28;20.40;;;;;;;0.10;66.85;100715.47;5047259;28;20476;-54
2021/12/14 07:41:06;;;;;;;44.08;22.27;;;;;;;0.12;66.28;100713.66;5042155;28;20048;-50
2021/12/14 07:43:45;;;;;;;39.80;20.15;;;;;;;0.16;66.20;100713.59;5031841;28;20037;-56
2021/12/14 07:46:19;;;;;;;43.83;20.48;;;;;;;0.21;66.09;100724.88;5042519;28;20061;-53
2021/12/14 07:48:48;;;;;;;41.80;21.58;;;;;;;0.23;65.78;100713.41;5033248;28;20034;-59
2021/12/14 07:51:16;;;;;;;50.63;21.90;;;;;;;0.11;66.23;100721.59;5046506;28;20401;-56
2021/12/14 07:53:46;;;;;;;44.00;21.65;;;;;;;0.15;66.55;100725.91;5041822;28;20037;-57
2021/12/14 07:56:26;;;;;;;40.85;20.38;;;;;;;0.25;65.79;100723.94;5043077;28;20082;-55
2021/12/14 07:58:52;;;;;;;43.92;20.70;;;;;;;0.29;65.49;100715.03;5037137;28;20834;-58
2021/12/14 08:01:18;;;;;;;38.25;18.98;;;;;;;0.39;65.25;100723.59;5044783;28;20033;-56
2021/12/14 08:03:44;;;;;;;38.88;19.42;;;;;;;0.48;64.63;100712.81;5031488;28;20060;-59
2021/12/14 08:06:15;;;;;;;40.08;20.10;;;;;;;0.67;64.32;100723.75;5047027;28;20052;-58
2021/12/14 08:08:44;;;;;;;38.28;19.45;;;;;;;0.70;64.03;100710.50;5036377;28;20170;-58
2021/12/14 08:11:30;;;;;;;37.80;19.05;;;;;;;0.87;63.90;100727.66;5035551;28;20104;-55
2021/12/14 08:14:04;;;;;;;37.03;20.10;;;;;;;0.89;63.45;100725.00;5041804;28;20039;-58
2021/12/14 08:17:07;;;;;;;36.88;18.60;;;;;;;0.89;63.81;100731.13;5051451;28;20124;-58
2021/12/14 08:19:37;;;;;;;40.08;19.45;;;;;;;0.75;64.10;100722.72;5040658;28;20128;-55
2021/12/14 08:22:07;;;;;;;39.22;20.02;;;;;;;0.74;64.16;100728.91;5031231;28;20096;-57
2021/12/14 08:24:34;;;;;;;37.80;19.13;;;;;;;0.68;63.88;100729.91;5030875;28;20028;-49
2021/12/14 08:27:02;;;;;;;37.45;18.92;;;;;;;0.62;63.59;100730.94;5031829;28;20392;-52
2021/12/14 08:29:30;;;;;;;38.95;19.58;;;;;;;0.53;63.87;100731.16;5033979;28;20037;-51
2021/12/14 08:32:13;;;;;;;34.30;18.48;;;;;;;0.49;64.50;100730.38;5048718;28;20047;-52
2021/12/14 08:34:43;;;;;;;35.97;18.42;;;;;;;0.30;64.31;100716.78;5050664;28;20500;-55
2021/12/14 08:37:21;;;;;;;37.42;19.25;;;;;;;0.28;64.37;100724.69;5050995;28;20035;-54
2021/12/14 08:39:51;;;;;;;41.75;19.98;;;;;;;0.22;64.50;100723.97;5050045;28;20029;-56
2021/12/14 08:42:36;;;;;;;42.88;20.27;;;;;;;0.26;64.79;100721.25;5047612;28;20477;-51
2021/12/14 08:45:24;;;;;;;38.97;19.75;;;;;;;0.28;64.52;100729.13;5049631;28;20077;-53
2021/12/14 08:48:11;;;;;;;45.85;20.48;;;;;;;0.29;64.48;100722.94;5048068;28;20029;-54
2021/12/14 08:50:53;;;;;;;46.80;21.02;;;;;;;0.33;64.08;100726.34;5048399;28;20465;-54
2021/12/14 08:53:20;;;;;;;42.85;21.38;;;;;;;0.24;64.72;100724.78;5050293;28;20033;-56
2021/12/14 08:55:50;;;;;;;39.45;20.65;;;;;;;0.25;64.73;100722.13;5051359;28;20043;-56
2021/12/14 08:58:16;;;;;;;40.38;20.08;;;;;;;0.25;64.01;100723.94;5051098;28;20029;-55
2021/12/14 09:00:49;;;;;;;40.85;19.67;;;;;;;0.28;64.26;100716.78;5050084;28;20029;-50
2021/12/14 09:03:24;;;;;;;34.97;18.40;;;;;;;0.29;64.85;100720.31;5050212;28;20108;-53
2021/12/14 09:05:52;;;;;;;37.05;18.80;;;;;;;0.15;64.59;100707.47;5051185;28;20191;-51
2021/12/14 09:08:20;;;;;;;33.85;17.52;;;;;;;0.16;64.44;100727.63;5050979;28;20094;-57
2021/12/14 09:10:51;;;;;;;37.75;18.55;;;;;;;0.14;64.87;100730.28;5051061;28;20036;-50
2021/12/14 09:13:17;;;;;;;35.65;18.13;;;;;;;0.09;64.87;100726.03;5051362;28;20033;-50
2021/12/14 09:15:51;;;;;;;36.92;17.92;;;;;;;0.09;65.11;100729.53;5050371;28;20029;-56
2021/12/14 09:18:24;;;;;;;34.55;17.67;;;;;;;0.14;64.93;100732.06;5048607;28;20492;-54
2021/12/14 09:20:59;;;;;;;35.95;18.48;;;;;;;0.15;64.68;100739.06;5049068;28;20025;-51
2021/12/14 09:23:30;;;;;;;44.17;19.65;;;;;;;0.08;64.26;100733.06;5049312;28;20029;-55
2021/12/14 09:25:56;;;;;;;33.78;18.52;;;;;;;-0.19;64.65;100698.56;5049198;28;20140;-52
2021/12/14 09:28:21;;;;;;;38.45;18.70;;;;;;;-0.06;64.46;100716.69;5048996;28;20763;-50
2021/12/14 09:30:56;;;;;;;37.40;19.08;;;;;;;0.11;64.71;100725.09;5050559;28;20529;-51
2021/12/14 09:33:24;;;;;;;39.92;19.00;;;;;;;0.16;64.55;100726.75;5050014;28;20033;-53
2021/12/14 09:35:53;;;;;;;35.65;18.27;;;;;;;0.14;64.16;100718.91;5050828;28;20029;-53
2021/12/14 09:38:24;;;;;;;33.40;17.38;;;;;;;0.08;63.76;100721.66;5050843;28;20028;-53
2021/12/14 09:40:53;;;;;;;34.67;17.10;;;;;;;0.06;64.36;100723.47;5051213;28;20055;-51
2021/12/14 09:43:21;;;;;;;33.42;16.65;;;;;;;-0.01;63.98;100722.72;5050901;28;20060;-53
2021/12/14 09:45:52;;;;;;;32.30;16.80;;;;;;;-0.07;64.52;100712.34;5050486;28;20431;-56
2021/12/14 09:48:27;;;;;;;32.58;15.80;;;;;;;-0.08;64.73;100721.13;5050789;28;20025;-53
2021/12/14 09:50:55;;;;;;;31.38;15.95;;;;;;;-0.11;63.88;100721.22;5051054;28;20028;-52
2021/12/14 09:53:26;;;;;;;33.38;16.13;;;;;;;-0.23;63.73;100720.59;5053933;28;20041;-51
2021/12/14 09:55:54;;;;;;;29.00;15.13;;;;;;;-0.33;64.53;100712.03;5054298;28;20025;-52
2021/12/14 09:58:28;;;;;;;31.38;14.68;;;;;;;-0.33;64.54;100704.13;5053796;28;20025;-53
2021/12/14 10:01:06;;;;;;;29.42;14.27;;;;;;;-0.32;64.17;100710.25;5054482;28;20094;-53
2021/12/14 10:03:32;;;;;;;26.48;14.32;;;;;;;-0.39;63.85;100711.28;5054139;28;20481;-49
2021/12/14 10:06:01;;;;;;;27.10;13.73;;;;;;;-0.47;64.50;100706.16;5054149;28;20033;-53
2021/12/14 10:08:35;;;;;;;27.88;13.77;;;;;;;-0.53;64.60;100704.53;5054063;28;20021;-55
2021/12/14 10:11:08;;;;;;;36.03;15.93;;;;;;;-0.54;64.93;100713.31;5054265;28;20029;-53
2021/12/14 10:13:37;;;;;;;29.40;13.98;;;;;;;-0.58;64.37;100711.66;5052902;28;20045;-55
2021/12/14 10:16:05;;;;;;;33.92;15.15;;;;;;;-0.61;64.94;100703.81;5054036;28;20029;-55
2021/12/14 10:18:38;;;;;;;33.22;14.63;;;;;;;-1.20;65.21;100602.47;5053672;28;20124;-58
2021/12/14 10:21:26;;;;;;;32.30;14.75;;;;;;;-0.38;65.19;100713.84;5054124;28;20025;-58
2021/12/14 10:23:52;;;;;;;30.05;15.07;;;;;;;-0.26;64.73;100717.16;5053747;28;20028;-57
2021/12/14 10:26:21;;;;;;;30.23;15.50;;;;;;;-0.09;63.76;100714.13;5053787;28;20057;-54
2021/12/14 10:28:51;;;;;;;36.85;16.58;;;;;;;0.06;63.38;100720.81;5053926;28;20033;-59
2021/12/14 10:31:25;;;;;;;34.28;15.43;;;;;;;0.12;63.11;100724.19;5053434;28;20041;-58
2021/12/14 10:33:51;;;;;;;30.40;16.05;;;;;;;0.03;62.86;100703.34;5053666;28;20451;-54
2021/12/14 10:36:28;;;;;;;29.95;14.57;;;;;;;0.16;63.05;100732.91;5053684;28;20587;-51
2021/12/14 10:39:38;;;;;;;32.28;15.88;;;;;;;0.16;62.95;100703.94;5053631;28;20033;-52
2021/12/14 10:44:39;;;;;;;32.58;15.65;;;;;;;0.33;62.51;100721.97;5053549;28;20041;-52
2021/12/14 10:47:07;;;;;;;33.58;14.77;;;;;;;0.19;62.30;100695.97;5053451;28;20082;-54
2021/12/14 10:49:33;;;;;;;32.38;15.15;;;;;;;0.31;61.84;100722.88;5053629;28;20021;-54
2021/12/14 10:52:04;;;;;;;27.20;13.73;;;;;;;0.33;62.34;100721.97;5053555;28;20094;-52
2021/12/14 10:54:30;;;;;;;28.75;14.30;;;;;;;0.21;61.77;100711.69;5053277;28;20025;-52
2021/12/14 10:56:57;;;;;;;29.77;14.10;;;;;;;0.28;62.37;100718.59;5053180;28;20037;-49
2021/12/14 10:59:28;;;;;;;28.75;14.07;;;;;;;0.22;61.97;100713.44;5053379;28;20068;-54
2021/12/14 11:01:54;;;;;;;32.60;14.00;;;;;;;0.16;62.49;100725.00;5053114;28;20111;-52
2021/12/14 11:04:37;;;;;;;31.00;14.18;;;;;;;0.19;62.77;100714.41;5052571;28;20070;-54
2021/12/14 11:07:18;;;;;;;33.63;14.40;;;;;;;0.11;62.54;100718.94;5052029;28;20032;-51
2021/12/14 11:09:47;;;;;;;28.75;14.27;;;;;;;0.13;62.45;100725.91;5053136;28;20499;-51
2021/12/14 11:12:31;;;;;;;30.33;14.70;;;;;;;0.18;62.76;100719.69;5052996;28;20039;-53
2021/12/14 11:15:18;;;;;;;28.83;14.50;;;;;;;0.19;62.88;100713.50;5051765;28;20035;-55
2021/12/14 11:20:37;;;;;;;32.85;15.20;;;;;;;0.25;62.35;100701.06;5052752;28;20484;-51
2021/12/14 11:23:24;;;;;;;32.15;15.00;;;;;;;0.32;62.78;100699.16;5052785;28;20489;-53
2021/12/14 11:25:50;;;;;;;29.80;13.82;;;;;;;0.35;61.98;100691.19;5053006;28;20056;-54
2021/12/14 11:28:21;;;;;;;28.70;15.10;;;;;;;0.41;62.07;100692.81;5052866;28;20037;-51
2021/12/14 11:30:52;;;;;;;37.97;16.63;;;;;;;0.39;62.05;100690.19;5052361;28;20095;-49
2021/12/14 11:33:36;;;;;;;34.13;17.25;;;;;;;0.37;62.02;100692.00;5052328;28;20040;-50
2021/12/14 11:36:10;;;;;;;34.83;16.35;;;;;;;0.35;62.61;100685.91;5052584;28;20025;-51
2021/12/14 11:39:03;;;;;;;37.60;17.98;;;;;;;0.37;62.50;100685.88;5052442;28;20032;-52
2021/12/14 11:41:37;;;;;;;33.78;17.80;;;;;;;0.36;61.82;100679.75;5052362;28;20028;-50
2021/12/14 11:44:12;;;;;;;31.60;16.90;;;;;;;0.37;61.38;100678.84;5052147;28;20098;-50
2021/12/14 11:47:02;;;;;;;35.50;17.00;;;;;;;0.30;62.40;100682.53;5052590;28;20537;-50
2021/12/14 11:49:52;;;;;;;32.58;16.88;;;;;;;0.29;62.54;100683.44;5052353;28;20029;-55
2021/12/14 11:52:49;;;;;;;39.20;17.88;;;;;;;0.45;61.77;100683.03;5052017;28;20056;-54
2021/12/14 11:55:20;;;;;;;40.42;19.00;;;;;;;0.18;62.09;100685.44;5052351;28;20032;-51
2021/12/14 11:57:47;;;;;;;38.42;17.63;;;;;;;0.07;62.75;100689.22;5052206;28;20041;-56
2021/12/14 12:00:18;;;;;;;34.75;16.92;;;;;;;0.10;62.64;100694.41;5052031;28;20367;-54
2021/12/14 12:02:44;;;;;;;34.92;17.23;;;;;;;0.13;62.50;100686.41;5050781;28;20032;-52
2021/12/14 12:05:18;;;;;;;37.80;18.27;;;;;;;0.19;62.13;100689.81;5052243;28;20029;-54